Time;durP1;ratioP1;P1;durP2;ratioP2;P2;SDS_P1;SDS_P2;PMS_P1;PMS_P2;Temp;Humidity;BMP_temperature;BMP_pressure;BME280_temperature;BME280_humidity;BME280_pressure;Samples;Min_cycle;Max_cycle;Signal;HPM_P1;HPM_P2
2023/05/13 00:01:53;;;;;;;7.73;3.30;;;15.60;99.90;;;;;;4995232;28;20291;-70
2023/05/13 00:04:19;;;;;;;4.60;3.20;;;15.50;99.90;;;;;;5008554;28;20130;-69
2023/05/13 00:06:45;;;;;;;4.20;3.17;;;15.50;99.90;;;;;;4992178;28;20351;-70
2023/05/13 00:09:11;;;;;;;4.47;3.13;;;15.50;99.90;;;;;;4991738;28;20035;-70
2023/05/13 00:11:36;;;;;;;8.17;3.70;;;15.40;99.90;;;;;;4992406;28;20307;-70
2023/05/13 00:14:02;;;;;;;8.37;3.37;;;15.30;99.90;;;;;;4993942;28;20085;-70
2023/05/13 00:16:28;;;;;;;6.13;3.78;;;15.30;99.90;;;;;;4994665;28;20030;-70
2023/05/13 00:18:55;;;;;;;6.07;3.57;;;15.30;99.90;;;;;;4993663;28;20037;-71
2023/05/13 00:21:21;;;;;;;4.07;3.42;;;15.30;99.90;;;;;;4993566;28;20030;-71
2023/05/13 00:23:47;;;;;;;4.63;3.10;;;15.10;99.90;;;;;;4994573;28;20469;-71
2023/05/13 00:26:13;;;;;;;7.07;4.25;;;15.10;99.90;;;;;;4992852;28;20023;-70
2023/05/13 00:28:39;;;;;;;8.68;4.00;;;15.10;99.90;;;;;;4993513;28;20113;-70
2023/05/13 00:31:05;;;;;;;6.17;4.20;;;15.10;99.90;;;;;;4993675;28;20158;-70
2023/05/13 00:33:31;;;;;;;7.57;4.87;;;15.20;99.90;;;;;;4994437;28;20401;-70
2023/05/13 00:35:56;;;;;;;7.67;5.17;;;14.90;99.90;;;;;;4994187;28;20285;-70
2023/05/13 00:38:22;;;;;;;11.53;5.40;;;14.60;99.90;;;;;;4990244;28;20030;-70
2023/05/13 00:40:48;;;;;;;8.50;5.13;;;14.40;99.90;;;;;;4989813;28;20417;-70
2023/05/13 00:43:15;;;;;;;7.03;5.10;;;14.20;99.90;;;;;;4993816;28;20121;-70
2023/05/13 00:45:41;;;;;;;9.70;5.50;;;14.20;99.90;;;;;;4984211;28;20140;-70
2023/05/13 00:48:08;;;;;;;8.77;6.05;;;14.20;99.90;;;;;;4993586;28;20037;-70
2023/05/13 00:50:34;;;;;;;8.52;5.82;;;14.20;99.90;;;;;;4992653;28;20065;-70
2023/05/13 00:53:02;;;;;;;8.40;6.23;;;14.30;99.90;;;;;;4994947;28;20034;-70
2023/05/13 00:55:28;;;;;;;10.43;6.78;;;14.30;99.90;;;;;;4993984;28;20564;-70
2023/05/13 00:57:53;;;;;;;9.50;6.53;;;14.40;99.90;;;;;;4991970;28;20034;-70
2023/05/13 01:00:19;;;;;;;10.73;7.07;;;14.40;99.90;;;;;;4988891;28;20418;-70
2023/05/13 01:02:48;;;;;;;8.63;6.43;;;14.50;99.90;;;;;;4993778;28;20842;-70
2023/05/13 01:05:16;;;;;;;9.23;5.72;;;14.50;99.90;;;;;;5006682;28;20359;-70
2023/05/13 01:08:21;;;;;;;12.98;6.20;;;14.50;99.90;;;;;;5007925;28;20072;-70
2023/05/13 01:10:52;;;;;;;14.60;6.95;;;14.40;99.90;;;;;;4992745;28;20446;-71
2023/05/13 01:13:23;;;;;;;11.82;7.53;;;14.30;99.90;;;;;;4990801;28;20090;-70
2023/05/13 01:15:56;;;;;;;9.77;6.45;;;14.40;99.90;;;;;;5015269;28;20046;-71
2023/05/13 01:18:32;;;;;;;9.63;6.25;;;14.40;99.90;;;;;;4990861;28;20023;-70
2023/05/13 01:21:00;;;;;;;12.40;6.72;;;14.50;99.90;;;;;;4986474;28;20027;-69
2023/05/13 01:23:26;;;;;;;14.90;6.22;;;14.50;99.90;;;;;;5003596;28;20039;-70
2023/05/13 01:25:52;;;;;;;9.40;5.95;;;14.40;99.90;;;;;;4986632;28;20037;-70
2023/05/13 01:28:18;;;;;;;8.80;5.60;;;14.40;99.90;;;;;;5009012;28;20026;-70
2023/05/13 01:30:45;;;;;;;13.85;6.80;;;14.40;99.90;;;;;;4999276;28;20038;-70
2023/05/13 01:33:12;;;;;;;13.00;6.88;;;14.50;99.90;;;;;;5007130;28;20034;-70
2023/05/13 01:35:38;;;;;;;11.10;7.60;;;14.60;99.90;;;;;;5005623;28;20072;-70
2023/05/13 01:38:05;;;;;;;9.57;7.07;;;14.50;99.90;;;;;;5000917;28;20398;-70
2023/05/13 01:40:31;;;;;;;14.95;6.38;;;14.40;99.90;;;;;;4993888;28;20790;-70
2023/05/13 01:42:57;;;;;;;9.52;6.57;;;14.20;99.90;;;;;;4988423;28;20137;-71
2023/05/13 01:45:23;;;;;;;11.17;6.63;;;14.20;99.90;;;;;;5007906;28;20134;-70
2023/05/13 01:47:48;;;;;;;9.63;6.77;;;14.30;99.90;;;;;;4992324;28;20027;-70
2023/05/13 01:50:14;;;;;;;11.43;7.73;;;14.30;99.90;;;;;;4992948;28;20030;-70
2023/05/13 01:52:40;;;;;;;13.73;7.40;;;14.30;99.90;;;;;;4992407;28;20418;-70
2023/05/13 01:55:06;;;;;;;9.67;7.13;;;14.40;99.90;;;;;;4984092;28;20034;-70
2023/05/13 01:57:32;;;;;;;9.32;7.03;;;14.40;99.90;;;;;;4996507;28;20081;-70
2023/05/13 01:59:57;;;;;;;12.73;7.80;;;14.40;99.90;;;;;;4996209;28;20038;-70
2023/05/13 02:02:23;;;;;;;17.40;7.77;;;14.30;99.90;;;;;;4995741;28;20108;-70
2023/05/13 02:04:49;;;;;;;10.07;6.90;;;14.30;99.90;;;;;;4996054;28;20031;-70
2023/05/13 02:07:15;;;;;;;9.83;7.57;;;14.30;99.90;;;;;;4994989;28;20097;-70
2023/05/13 02:09:41;;;;;;;12.60;8.17;;;14.30;99.90;;;;;;4993378;28;21422;-71
2023/05/13 02:12:07;;;;;;;14.38;8.05;;;14.20;99.90;;;;;;4995758;28;20120;-70
2023/05/13 02:14:33;;;;;;;11.00;8.85;;;14.20;99.90;;;;;;4996537;28;20034;-70
2023/05/13 02:16:59;;;;;;;14.20;8.90;;;14.00;99.90;;;;;;4996808;28;20034;-70
2023/05/13 02:19:25;;;;;;;12.40;9.30;;;14.10;99.90;;;;;;4996761;28;20030;-70
2023/05/13 02:21:50;;;;;;;13.87;8.63;;;14.10;99.90;;;;;;4994579;28;20030;-70
2023/05/13 02:24:16;;;;;;;13.33;8.40;;;14.10;99.90;;;;;;4993447;28;20061;-70
2023/05/13 02:26:43;;;;;;;13.60;8.87;;;14.00;99.90;;;;;;4985694;28;20157;-70
2023/05/13 02:29:10;;;;;;;17.25;9.32;;;14.00;99.90;;;;;;4991632;28;20044;-70
2023/05/13 02:31:35;;;;;;;16.08;9.38;;;14.00;99.90;;;;;;5013158;28;21563;-69
2023/05/13 02:34:02;;;;;;;17.23;9.57;;;14.00;99.90;;;;;;4995229;28;20157;-70
2023/05/13 02:36:27;;;;;;;19.10;9.75;;;14.00;99.90;;;;;;4992949;28;20160;-69
2023/05/13 02:38:53;;;;;;;18.23;9.90;;;14.00;99.90;;;;;;4995411;28;20495;-70
2023/05/13 02:41:19;;;;;;;16.67;10.13;;;14.00;99.90;;;;;;4994402;28;20449;-69
2023/05/13 02:43:44;;;;;;;14.37;9.67;;;13.90;99.90;;;;;;4997034;28;20380;-70
2023/05/13 02:46:10;;;;;;;18.60;10.07;;;13.90;99.90;;;;;;4996392;28;20018;-70
2023/05/13 02:48:36;;;;;;;15.43;9.40;;;13.90;99.90;;;;;;4996152;28;20108;-70
2023/05/13 02:51:02;;;;;;;16.97;10.73;;;13.90;99.90;;;;;;4995664;28;20030;-70
2023/05/13 02:53:28;;;;;;;13.90;9.90;;;13.90;99.90;;;;;;4995545;28;20366;-70
2023/05/13 02:55:53;;;;;;;23.90;11.67;;;13.80;99.90;;;;;;4986023;28;20034;-70
2023/05/13 02:58:19;;;;;;;14.83;10.30;;;13.90;99.90;;;;;;4995492;28;20041;-69
2023/05/13 03:00:45;;;;;;;14.80;11.07;;;13.90;99.90;;;;;;4990125;28;20023;-70
2023/05/13 03:03:10;;;;;;;14.87;10.97;;;13.80;99.90;;;;;;4995108;28;20098;-70
2023/05/13 03:05:36;;;;;;;21.27;10.17;;;13.80;99.90;;;;;;4994638;28;20030;-69
2023/05/13 03:08:02;;;;;;;17.70;10.43;;;13.80;99.90;;;;;;4994569;28;20034;-70
2023/05/13 03:10:28;;;;;;;21.60;10.23;;;13.80;99.90;;;;;;4995470;28;20034;-70
2023/05/13 03:12:53;;;;;;;14.50;9.83;;;13.80;99.90;;;;;;4994965;28;20105;-70
2023/05/13 03:15:19;;;;;;;14.47;9.53;;;13.80;99.90;;;;;;4996410;28;20046;-70
2023/05/13 03:17:45;;;;;;;18.67;9.97;;;13.80;99.90;;;;;;4996092;28;20417;-69
2023/05/13 03:20:11;;;;;;;16.87;10.20;;;13.80;99.90;;;;;;4994877;28;20085;-69
2023/05/13 03:22:40;;;;;;;17.43;11.10;;;13.70;99.90;;;;;;4996231;28;20406;-70
2023/05/13 03:25:06;;;;;;;14.23;10.07;;;13.70;99.90;;;;;;4995625;28;20070;-70
2023/05/13 03:27:32;;;;;;;17.88;11.18;;;13.70;99.90;;;;;;4996361;28;20303;-70
2023/05/13 03:29:58;;;;;;;15.63;10.67;;;13.70;99.90;;;;;;4994578;28;20038;-69
2023/05/13 03:32:29;;;;;;;14.97;10.33;;;13.70;99.90;;;;;;4996264;28;20029;-68
2023/05/13 03:34:56;;;;;;;15.38;9.40;;;13.70;99.90;;;;;;4994394;28;20118;-69
2023/05/13 03:37:21;;;;;;;;;;;13.70;99.90;;;;;;4994955;28;20030;-69
2023/05/13 03:39:47;;;;;;;19.43;10.77;;;13.70;99.90;;;;;;4996021;28;19920;-69
2023/05/13 03:42:12;;;;;;;18.20;11.50;;;13.70;99.90;;;;;;4995666;28;20073;-69
2023/05/13 03:44:38;;;;;;;19.43;11.20;;;13.70;99.90;;;;;;4996135;28;20026;-70
2023/05/13 03:47:04;;;;;;;20.85;11.80;;;13.70;99.90;;;;;;4993594;28;20027;-69
2023/05/13 03:49:30;;;;;;;21.67;11.70;;;13.70;99.90;;;;;;4994083;28;20421;-69
2023/05/13 03:51:56;;;;;;;20.77;11.77;;;13.70;99.90;;;;;;4994863;28;20099;-69
2023/05/13 03:54:22;;;;;;;20.27;12.77;;;13.70;99.90;;;;;;4992562;28;20061;-69
2023/05/13 03:56:48;;;;;;;22.53;12.77;;;13.70;99.90;;;;;;4995076;28;20426;-70
2023/05/13 03:59:14;;;;;;;19.30;11.67;;;13.60;99.90;;;;;;4994354;28;20272;-70
2023/05/13 04:01:40;;;;;;;18.73;11.00;;;13.60;99.90;;;;;;4993261;28;20129;-70
2023/05/13 04:04:05;;;;;;;18.43;11.03;;;13.60;99.90;;;;;;4994398;28;20319;-69
2023/05/13 04:06:31;;;;;;;20.90;11.33;;;13.60;99.90;;;;;;4994671;28;20354;-69
2023/05/13 04:08:58;;;;;;;18.40;11.67;;;13.60;99.90;;;;;;4994164;28;20022;-70
2023/05/13 04:11:24;;;;;;;;;;;13.60;99.90;;;;;;4994039;28;20826;-70
2023/05/13 04:13:50;;;;;;;20.00;11.82;;;13.50;99.90;;;;;;4988339;28;19917;-69
2023/05/13 04:16:16;;;;;;;18.80;12.47;;;13.60;99.90;;;;;;4991738;28;20030;-70
2023/05/13 04:18:41;;;;;;;21.70;13.07;;;13.60;99.90;;;;;;4991647;28;20034;-69
2023/05/13 04:21:08;;;;;;;27.67;12.50;;;13.60;99.90;;;;;;4993981;28;20059;-70
2023/05/13 04:23:34;;;;;;;24.73;11.05;;;13.60;99.90;;;;;;4992806;28;20031;-68
2023/05/13 04:25:59;;;;;;;21.87;11.97;;;13.60;99.90;;;;;;4993621;28;20053;-69
2023/05/13 04:28:25;;;;;;;17.13;10.70;;;13.50;99.90;;;;;;4994234;28;20057;-69
2023/05/13 04:30:51;;;;;;;17.10;11.33;;;13.60;99.90;;;;;;4993248;28;20092;-70
2023/05/13 04:33:17;;;;;;;18.85;11.13;;;13.60;99.90;;;;;;4992979;28;20030;-70
2023/05/13 04:35:43;;;;;;;18.30;10.30;;;13.60;99.90;;;;;;4987815;28;20377;-69
2023/05/13 04:38:08;;;;;;;16.40;10.10;;;13.60;99.90;;;;;;4994346;28;20022;-69
2023/05/13 04:40:34;;;;;;;19.27;9.83;;;13.60;99.90;;;;;;4992972;28;20413;-69
2023/05/13 04:43:00;;;;;;;14.37;10.33;;;13.60;99.90;;;;;;4992812;28;20414;-70
2023/05/13 04:45:25;;;;;;;14.90;10.37;;;13.60;99.90;;;;;;4991759;28;20022;-69
2023/05/13 04:47:51;;;;;;;14.93;10.60;;;13.70;99.90;;;;;;4993388;28;20365;-70
2023/05/13 04:50:17;;;;;;;16.53;11.07;;;13.70;99.90;;;;;;4993564;28;20034;-68
2023/05/13 04:52:43;;;;;;;18.60;10.40;;;13.70;99.90;;;;;;4993025;28;20057;-69
2023/05/13 04:55:09;;;;;;;13.18;8.63;;;13.70;99.90;;;;;;4994770;28;20030;-69
2023/05/13 04:57:35;;;;;;;14.93;9.88;;;13.70;99.90;;;;;;4990971;28;20034;-69
2023/05/13 05:00:03;;;;;;;13.60;8.70;;;13.70;99.90;;;;;;4993197;28;20068;-68
2023/05/13 05:02:29;;;;;;;12.68;7.95;;;13.70;99.90;;;;;;4995157;28;20287;-70
2023/05/13 05:04:57;;;;;;;12.95;8.45;;;13.70;99.90;;;;;;5009932;28;20082;-69
2023/05/13 05:07:24;;;;;;;15.25;7.80;;;13.80;99.90;;;;;;4996685;28;20031;-68
2023/05/13 05:09:50;;;;;;;;;;;13.80;99.90;;;;;;5001026;28;20030;-69
2023/05/13 05:12:15;;;;;;;17.00;8.10;;;13.80;99.90;;;;;;5005428;28;19913;-77
2023/05/13 05:14:41;;;;;;;10.93;7.00;;;13.90;99.90;;;;;;4995678;28;20062;-70
2023/05/13 05:17:07;;;;;;;20.40;8.57;;;13.90;99.90;;;;;;5003178;28;20033;-70
2023/05/13 05:19:33;;;;;;;13.77;8.20;;;14.00;99.90;;;;;;4994624;28;20033;-69
2023/05/13 05:21:58;;;;;;;13.10;8.33;;;14.10;99.90;;;;;;4993673;28;20048;-70
2023/05/13 05:24:25;;;;;;;15.47;8.03;;;14.10;99.90;;;;;;4992738;28;20031;-69
2023/05/13 05:26:51;;;;;;;11.80;7.50;;;14.10;99.90;;;;;;4993956;28;20019;-69
2023/05/13 05:29:17;;;;;;;18.00;8.80;;;14.10;99.90;;;;;;4993164;28;20034;-83
2023/05/13 05:31:43;;;;;;;15.43;8.40;;;14.20;99.90;;;;;;4993760;28;20037;-69
2023/05/13 05:34:08;;;;;;;15.75;9.10;;;14.20;99.90;;;;;;4998874;28;20037;-69
2023/05/13 05:36:34;;;;;;;15.13;8.47;;;14.20;99.90;;;;;;4988132;28;20034;-70
2023/05/13 05:39:00;;;;;;;12.07;8.43;;;14.30;99.90;;;;;;4993721;28;20037;-70
2023/05/13 05:41:26;;;;;;;16.67;8.00;;;14.30;99.90;;;;;;4992874;28;20287;-69
2023/05/13 05:43:52;;;;;;;11.77;7.60;;;14.30;99.90;;;;;;4991997;28;20130;-70
2023/05/13 05:46:17;;;;;;;13.23;8.67;;;14.30;99.90;;;;;;4993373;28;20377;-70
2023/05/13 05:48:43;;;;;;;14.47;8.73;;;14.30;99.90;;;;;;4993575;28;20026;-69
2023/05/13 05:51:09;;;;;;;16.37;9.10;;;14.30;99.90;;;;;;4993558;28;20476;-69
2023/05/13 05:53:39;;;;;;;19.13;9.70;;;14.30;99.90;;;;;;4992801;28;20034;-69
2023/05/13 05:56:05;;;;;;;14.02;9.02;;;14.30;99.90;;;;;;4993306;28;20035;-70
2023/05/13 05:58:31;;;;;;;19.30;9.60;;;14.30;99.90;;;;;;4993923;28;20084;-70
2023/05/13 06:00:59;;;;;;;13.37;7.73;;;14.30;99.90;;;;;;4992566;28;20104;-70
2023/05/13 06:03:25;;;;;;;12.77;8.15;;;14.40;99.90;;;;;;5008602;28;20445;-70
2023/05/13 06:05:51;;;;;;;15.38;9.25;;;14.30;99.90;;;;;;4992835;28;20045;-70
2023/05/13 06:08:17;;;;;;;20.17;9.63;;;14.40;99.90;;;;;;4992667;28;20073;-70
2023/05/13 06:10:43;;;;;;;13.13;8.23;;;14.40;99.90;;;;;;4993197;28;20307;-71
2023/05/13 06:13:09;;;;;;;16.60;9.50;;;14.50;99.90;;;;;;4991526;28;20105;-78
2023/05/13 06:15:37;;;;;;;19.37;9.53;;;14.40;99.90;;;;;;4990679;28;20053;-69
2023/05/13 06:18:04;;;;;;;13.90;8.10;;;14.40;99.90;;;;;;4993498;28;20050;-70
2023/05/13 06:20:31;;;;;;;17.63;9.57;;;14.40;99.90;;;;;;4993933;28;20026;-73
2023/05/13 06:22:57;;;;;;;14.48;8.45;;;14.40;99.90;;;;;;4992149;28;20437;-69
2023/05/13 06:25:23;;;;;;;14.73;9.00;;;14.50;99.90;;;;;;4990375;28;20080;-69
2023/05/13 06:27:49;;;;;;;13.37;9.80;;;14.60;99.90;;;;;;4990784;28;20045;-70
2023/05/13 06:30:14;;;;;;;17.20;10.10;;;14.60;99.90;;;;;;4993282;28;20030;-70
2023/05/13 06:32:40;;;;;;;12.87;9.23;;;14.60;99.90;;;;;;4992034;28;20026;-70
2023/05/13 06:35:06;;;;;;;18.10;9.40;;;14.60;99.90;;;;;;4985777;28;20070;-74
2023/05/13 06:37:32;;;;;;;13.80;8.20;;;14.70;99.90;;;;;;4993749;28;20027;-70
2023/05/13 06:39:58;;;;;;;18.83;10.07;;;14.70;99.90;;;;;;4994550;28;20037;-70
2023/05/13 06:42:24;;;;;;;21.25;9.30;;;14.70;99.90;;;;;;4993930;28;20184;-69
2023/05/13 06:44:51;;;;;;;15.33;9.43;;;14.80;99.90;;;;;;4996192;28;20425;-70
2023/05/13 06:47:17;;;;;;;16.70;10.70;;;14.80;99.90;;;;;;5015860;28;20046;-79
2023/05/13 06:49:43;;;;;;;14.53;9.27;;;15.00;99.90;;;;;;5004522;28;20449;-70
2023/05/13 06:52:09;;;;;;;13.50;9.90;;;15.00;99.90;;;;;;5000934;28;20037;-71
2023/05/13 06:54:35;;;;;;;17.85;9.77;;;15.00;99.90;;;;;;4994691;28;20097;-71
2023/05/13 06:57:04;;;;;;;15.88;9.98;;;15.10;99.90;;;;;;4992237;28;20073;-71
2023/05/13 06:59:30;;;;;;;17.35;9.63;;;15.00;99.90;;;;;;5005303;28;20026;-70
2023/05/13 07:01:56;;;;;;;15.10;9.10;;;15.00;99.90;;;;;;4997081;28;20034;-71
2023/05/13 07:04:22;;;;;;;11.97;9.03;;;15.10;99.90;;;;;;4999561;28;20045;-71
2023/05/13 07:06:48;;;;;;;16.87;9.73;;;15.00;99.90;;;;;;5001495;28;20089;-71
2023/05/13 07:09:14;;;;;;;16.27;10.57;;;15.00;99.90;;;;;;4995468;28;20073;-71
2023/05/13 07:11:40;;;;;;;18.70;9.27;;;15.10;99.90;;;;;;4993232;28;20311;-74
2023/05/13 07:14:05;;;;;;;13.10;8.33;;;15.00;99.90;;;;;;4992319;28;20326;-70
2023/05/13 07:16:31;;;;;;;17.13;9.83;;;15.00;99.90;;;;;;4991964;28;20058;-71
2023/05/13 07:18:57;;;;;;;18.07;9.23;;;15.10;99.90;;;;;;4989777;28;20026;-70
2023/05/13 07:21:23;;;;;;;15.90;9.57;;;15.20;99.90;;;;;;4984718;28;20027;-70
2023/05/13 07:23:49;;;;;;;15.53;9.83;;;15.30;99.90;;;;;;5015967;28;20026;-70
2023/05/13 07:26:14;;;;;;;15.97;9.40;;;15.30;99.90;;;;;;5009194;28;20076;-70
2023/05/13 07:28:40;;;;;;;12.73;8.97;;;15.40;99.90;;;;;;4998489;28;20050;-70
2023/05/13 07:31:06;;;;;;;18.00;9.77;;;15.40;99.90;;;;;;5009623;28;20440;-77
2023/05/13 07:33:32;;;;;;;16.47;8.73;;;15.30;99.90;;;;;;5011960;28;20401;-70
2023/05/13 07:35:57;;;;;;;16.23;9.47;;;15.40;99.90;;;;;;5014741;28;20030;-70
2023/05/13 07:38:23;;;;;;;17.73;9.57;;;15.40;99.90;;;;;;5009383;28;20037;-70
2023/05/13 07:40:49;;;;;;;17.13;9.67;;;15.50;99.90;;;;;;5001517;28;20044;-77
2023/05/13 07:43:22;;;;;;;14.98;9.45;;;15.50;99.90;;;;;;4995297;28;20018;-70
2023/05/13 07:45:49;;;;;;;14.95;8.38;;;15.60;99.90;;;;;;5008261;28;20053;-78
2023/05/13 07:48:16;;;;;;;13.77;9.02;;;15.70;99.90;;;;;;5006892;28;20093;-71
2023/05/13 07:50:45;;;;;;;;;;;15.70;99.90;;;;;;5006804;28;20036;-70
2023/05/13 07:53:11;;;;;;;16.67;7.03;;;15.80;99.90;;;;;;5001357;28;19909;-69
2023/05/13 07:55:37;;;;;;;12.67;8.67;;;15.70;99.90;;;;;;5006543;28;20098;-75
2023/05/13 07:58:02;;;;;;;12.63;8.40;;;15.70;99.90;;;;;;5010493;28;20029;-70
2023/05/13 08:00:28;;;;;;;15.23;8.33;;;15.60;99.90;;;;;;5004668;28;20045;-70
2023/05/13 08:02:54;;;;;;;12.47;8.43;;;15.60;99.90;;;;;;5010654;28;20435;-77
2023/05/13 08:05:20;;;;;;;14.82;9.60;;;15.60;99.90;;;;;;5021167;28;20303;-72
2023/05/13 08:07:46;;;;;;;13.02;8.32;;;15.70;99.90;;;;;;5006551;28;20421;-70
2023/05/13 08:10:12;;;;;;;12.03;6.37;;;15.80;99.90;;;;;;5002436;28;20117;-70
2023/05/13 08:12:39;;;;;;;14.30;8.67;;;15.80;99.90;;;;;;5006372;28;20330;-71
2023/05/13 08:15:06;;;;;;;14.75;9.20;;;15.90;99.90;;;;;;5008307;28;20395;-70
2023/05/13 08:17:32;;;;;;;14.20;7.72;;;16.00;99.90;;;;;;4997140;28;20076;-70
2023/05/13 08:19:58;;;;;;;14.45;8.50;;;16.00;99.90;;;;;;4999378;28;20066;-70
2023/05/13 08:22:25;;;;;;;8.10;5.20;;;15.90;99.90;;;;;;4995486;28;20058;-71
2023/05/13 08:24:50;;;;;;;17.65;9.07;;;16.00;99.90;;;;;;5006265;28;20109;-70
2023/05/13 08:27:16;;;;;;;14.80;8.33;;;16.00;99.90;;;;;;4996402;28;20101;-70
2023/05/13 08:29:42;;;;;;;24.10;9.70;;;16.00;99.90;;;;;;4995740;28;20053;-70
2023/05/13 08:32:07;;;;;;;11.23;6.80;;;16.10;99.90;;;;;;4995544;28;20115;-77
2023/05/13 08:34:33;;;;;;;12.90;8.33;;;15.90;99.90;;;;;;5011389;28;20026;-70
2023/05/13 08:36:59;;;;;;;14.57;8.63;;;15.70;99.90;;;;;;4995696;28;20062;-70
2023/05/13 08:39:24;;;;;;;13.73;7.70;;;15.70;99.90;;;;;;4994668;28;20057;-70
2023/05/13 08:41:53;;;;;;;13.57;9.70;;;15.90;99.90;;;;;;4995147;28;20045;-70
2023/05/13 08:44:27;;;;;;;16.42;8.98;;;15.80;99.90;;;;;;4995860;28;20045;-70
2023/05/13 08:47:17;;;;;;;18.98;9.43;;;15.90;99.90;;;;;;5010143;28;20035;-70
2023/05/13 08:49:44;;;;;;;12.57;8.70;;;16.10;99.90;;;;;;4994777;28;20041;-70
2023/05/13 08:52:10;;;;;;;12.95;8.82;;;16.10;99.90;;;;;;4995101;28;20030;-72
2023/05/13 08:54:37;;;;;;;18.00;8.80;;;16.30;99.90;;;;;;4995646;28;20026;-77
2023/05/13 08:57:02;;;;;;;;;;;16.40;99.90;;;;;;4996117;28;20064;-70
2023/05/13 08:59:28;;;;;;;15.02;8.18;;;16.40;99.90;;;;;;4994031;28;19909;-71
2023/05/13 09:01:55;;;;;;;15.23;7.87;;;16.40;99.90;;;;;;4995183;28;20089;-69
2023/05/13 09:04:21;;;;;;;11.20;8.45;;;16.40;99.90;;;;;;4994173;28;20018;-70
2023/05/13 09:06:47;;;;;;;7.77;5.53;;;16.40;99.90;;;;;;4995534;28;20295;-70
2023/05/13 09:09:13;;;;;;;11.73;8.70;;;16.50;99.90;;;;;;4995220;28;20037;-70
2023/05/13 09:11:39;;;;;;;14.87;8.33;;;16.40;99.90;;;;;;4995409;28;20042;-70
2023/05/13 09:14:07;;;;;;;11.80;5.60;;;16.50;99.90;;;;;;4994682;28;20342;-70
2023/05/13 09:16:35;;;;;;;14.07;8.80;;;16.30;99.90;;;;;;4995181;28;20030;-71
2023/05/13 09:19:05;;;;;;;11.80;8.25;;;16.40;99.90;;;;;;4995259;28;20027;-71
2023/05/13 09:21:34;;;;;;;14.68;8.10;;;16.70;99.90;;;;;;4993969;28;20116;-71
2023/05/13 09:24:10;;;;;;;13.48;8.57;;;16.70;99.90;;;;;;4995212;28;20089;-70
2023/05/13 09:26:37;;;;;;;13.32;7.15;;;16.80;99.90;;;;;;4994557;28;20023;-71
2023/05/13 09:29:25;;;;;;;11.38;7.85;;;16.60;99.90;;;;;;4995180;28;20027;-70
2023/05/13 09:31:57;;;;;;;10.32;7.60;;;16.80;99.90;;;;;;4994007;28;20041;-70
2023/05/13 09:34:33;;;;;;;12.88;8.45;;;16.70;99.90;;;;;;4995110;28;20422;-70
2023/05/13 09:37:05;;;;;;;14.60;7.70;;;16.80;99.90;;;;;;4993231;28;20045;-78
2023/05/13 09:39:38;;;;;;;24.75;6.15;;;16.90;99.90;;;;;;5000662;28;20045;-71
2023/05/13 09:42:05;;;;;;;16.67;9.30;;;16.90;99.90;;;;;;4995137;28;20038;-71
2023/05/13 09:44:31;;;;;;;12.70;8.20;;;16.70;99.90;;;;;;4997147;28;20050;-70
2023/05/13 09:47:00;;;;;;;14.52;7.90;;;16.90;99.90;;;;;;5004354;28;20048;-70
2023/05/13 09:49:27;;;;;;;15.93;8.55;;;16.70;99.90;;;;;;5000850;28;20022;-79
2023/05/13 09:51:53;;;;;;;12.93;8.20;;;16.80;99.90;;;;;;4998618;28;20377;-70
2023/05/13 09:54:19;;;;;;;15.10;8.50;;;16.80;99.90;;;;;;4998905;28;20033;-72
2023/05/13 09:56:45;;;;;;;12.13;8.23;;;17.10;99.90;;;;;;5004529;28;20033;-70
2023/05/13 09:59:11;;;;;;;11.93;8.40;;;17.10;99.90;;;;;;4990699;28;20026;-70
2023/05/13 10:01:39;;;;;;;12.33;8.00;;;17.00;99.90;;;;;;4993800;28;20034;-78
2023/05/13 10:04:05;;;;;;;17.08;7.50;;;17.10;99.90;;;;;;5000044;28;20322;-71
2023/05/13 10:06:32;;;;;;;17.17;9.17;;;17.20;99.90;;;;;;4995013;28;20031;-79
2023/05/13 10:09:00;;;;;;;11.68;8.10;;;17.40;99.90;;;;;;5000597;28;20264;-76
2023/05/13 10:11:28;;;;;;;12.60;8.55;;;17.60;99.90;;;;;;4993204;28;20026;-80
2023/05/13 10:14:03;;;;;;;9.35;6.53;;;17.80;99.90;;;;;;5000777;28;20037;-70
2023/05/13 10:16:30;;;;;;;17.42;7.63;;;17.60;99.90;;;;;;5006715;28;20026;-71
2023/05/13 10:18:57;;;;;;;10.10;6.88;;;17.70;99.90;;;;;;5016391;28;20512;-73
2023/05/13 10:21:25;;;;;;;10.30;7.43;;;17.70;99.90;;;;;;4997166;28;20034;-75
2023/05/13 10:23:51;;;;;;;18.17;7.75;;;17.80;99.90;;;;;;4997341;28;20421;-72
2023/05/13 10:26:21;;;;;;;11.85;7.03;;;17.80;99.90;;;;;;4996339;28;20435;-82
2023/05/13 10:28:48;;;;;;;11.10;6.50;;;17.80;99.90;;;;;;4999226;28;20034;-75
2023/05/13 10:31:17;;;;;;;8.00;5.75;;;17.60;99.90;;;;;;4992320;28;20114;-70
2023/05/13 10:33:44;;;;;;;15.05;6.72;;;17.80;99.90;;;;;;4996646;28;20030;-78
2023/05/13 10:36:35;;;;;;;10.20;6.95;;;17.90;99.90;;;;;;4986293;28;20031;-70
2023/05/13 10:39:38;;;;;;;9.43;6.20;;;18.20;99.90;;;;;;4999627;28;20182;-70
2023/05/13 10:42:07;;;;;;;10.98;7.10;;;18.30;99.90;;;;;;4979100;28;20026;-70
2023/05/13 10:44:34;;;;;;;9.68;6.57;;;18.60;99.90;;;;;;4977695;28;20362;-72
2023/05/13 10:47:01;;;;;;;7.65;5.53;;;18.50;99.90;;;;;;4984274;28;20272;-77
2023/05/13 10:49:33;;;;;;;10.82;6.00;;;18.50;99.90;;;;;;4982548;28;20440;-71
2023/05/13 10:52:12;;;;;;;13.88;7.25;;;18.50;99.90;;;;;;4981473;28;20026;-71
2023/05/13 10:54:40;;;;;;;11.30;6.72;;;18.40;99.90;;;;;;4982993;28;20026;-83
2023/05/13 10:57:08;;;;;;;12.55;7.40;;;18.40;99.90;;;;;;4984297;28;20468;-82
2023/05/13 10:59:36;;;;;;;6.03;4.95;;;18.50;99.90;;;;;;4979687;28;20022;-70
2023/05/13 11:02:18;;;;;;;5.65;3.53;;;18.50;99.90;;;;;;4982994;28;20117;-70
2023/05/13 11:04:58;;;;;;;14.18;6.95;;;18.30;99.90;;;;;;4984604;28;20022;-70
2023/05/13 11:07:27;;;;;;;8.23;4.68;;;18.30;99.90;;;;;;5001751;28;20101;-70
2023/05/13 11:09:53;;;;;;;8.40;5.95;;;18.30;99.90;;;;;;5003880;28;20026;-70
2023/05/13 11:12:18;;;;;;;10.53;6.33;;;18.30;99.90;;;;;;5005239;28;20018;-72
2023/05/13 11:14:45;;;;;;;9.77;7.00;;;18.50;99.90;;;;;;5009982;28;20038;-71
2023/05/13 11:17:11;;;;;;;10.30;7.43;;;18.40;99.90;;;;;;5004105;28;20031;-70
2023/05/13 11:19:49;;;;;;;14.25;7.18;;;18.50;99.90;;;;;;4997367;28;20031;-83
2023/05/13 11:22:19;;;;;;;10.25;7.63;;;18.40;99.90;;;;;;4985160;28;20129;-71
2023/05/13 11:25:01;;;;;;;13.70;7.43;;;18.50;99.90;;;;;;4997194;28;20319;-71
2023/05/13 11:27:27;;;;;;;12.63;8.55;;;18.50;99.90;;;;;;4994300;28;20045;-72
2023/05/13 11:29:54;;;;;;;14.77;7.13;;;18.50;99.90;;;;;;4996811;28;20493;-71
2023/05/13 11:32:54;;;;;;;9.25;6.22;;;18.60;99.90;;;;;;4997274;28;20019;-71
2023/05/13 11:35:26;;;;;;;11.65;7.30;;;18.70;99.90;;;;;;4996417;28;20105;-70
2023/05/13 11:37:52;;;;;;;13.70;7.57;;;18.70;99.90;;;;;;4996795;28;20299;-72
2023/05/13 11:40:32;;;;;;;10.18;6.72;;;18.70;99.90;;;;;;4996383;28;20322;-70
2023/05/13 11:42:58;;;;;;;19.15;9.18;;;18.80;99.90;;;;;;4997365;28;20048;-71
2023/05/13 11:45:25;;;;;;;;;;;18.90;99.90;;;;;;4997007;28;20026;-71
2023/05/13 11:47:52;;;;;;;12.55;8.15;;;18.90;99.90;;;;;;4996954;28;19913;-70
2023/05/13 11:50:23;;;;;;;12.95;9.13;;;19.00;99.90;;;;;;4995920;28;20428;-69
2023/05/13 11:52:54;;;;;;;7.78;5.85;;;19.10;99.90;;;;;;4996720;28;20230;-70
2023/05/13 11:55:33;;;;;;;17.08;9.77;;;18.90;99.90;;;;;;4995598;28;20031;-79
2023/05/13 11:57:59;;;;;;;9.43;6.43;;;18.80;99.90;;;;;;4984470;28;20026;-78
2023/05/13 12:00:26;;;;;;;13.98;7.68;;;18.70;99.90;;;;;;4996510;28;20022;-71
2023/05/13 12:02:53;;;;;;;9.43;5.80;;;18.60;99.90;;;;;;4996085;28;20027;-71
2023/05/13 12:05:18;;;;;;;16.15;9.10;;;18.50;99.90;;;;;;4995422;28;20360;-77
2023/05/13 12:07:44;;;;;;;15.80;8.70;;;18.60;99.90;;;;;;4996123;28;20022;-71
2023/05/13 12:10:10;;;;;;;15.07;10.03;;;18.80;99.90;;;;;;5011315;28;20026;-70
2023/05/13 12:12:44;;;;;;;17.13;8.93;;;19.00;99.90;;;;;;4994267;28;20062;-71
2023/05/13 12:15:18;;;;;;;15.27;9.93;;;19.20;99.90;;;;;;5009711;28;20054;-75
2023/05/13 12:17:44;;;;;;;10.23;5.72;;;19.10;99.90;;;;;;4996142;28;20394;-70
2023/05/13 12:20:13;;;;;;;11.40;6.00;;;19.20;99.90;;;;;;4995654;28;20034;-70
2023/05/13 12:22:42;;;;;;;17.17;9.43;;;19.10;99.90;;;;;;4999907;28;20049;-81
2023/05/13 12:25:40;;;;;;;16.35;10.20;;;19.20;99.90;;;;;;4993635;28;20105;-70
2023/05/13 12:28:25;;;;;;;16.52;8.95;;;19.10;99.90;;;;;;4992288;28;20037;-77
2023/05/13 12:30:54;;;;;;;16.55;10.18;;;19.10;99.90;;;;;;5009583;28;20421;-69
2023/05/13 12:33:26;;;;;;;18.27;7.88;;;19.10;99.90;;;;;;5003558;28;20039;-73
2023/05/13 12:35:53;;;;;;;17.35;11.15;;;19.00;99.90;;;;;;4996968;28;20134;-72
2023/05/13 12:38:23;;;;;;;16.30;9.63;;;19.20;99.90;;;;;;4985474;28;20081;-71
2023/05/13 12:40:49;;;;;;;17.92;11.75;;;19.10;99.90;;;;;;4992652;28;20033;-72